sensor_id;sensor_type;location;lat;lon;timestamp;temperature;humidity
44271;DHT22;29963;44.594;11.368;2024-03-02T00:01:28;12.70;99.90
44271;DHT22;29963;44.594;11.368;2024-03-02T00:03:53;12.70;99.90
44271;DHT22;29963;44.594;11.368;2024-03-02T00:06:20;12.60;99.90
44271;DHT22;29963;44.594;11.368;2024-03-02T00:08:46;12.70;99.90
44271;DHT22;29963;44.594;11.368;2024-03-02T00:11:12;12.70;99.90
44271;DHT22;29963;44.594;11.368;2024-03-02T00:13:39;12.70;99.90
44271;DHT22;29963;44.594;11.368;2024-03-02T00:16:05;12.70;99.90
44271;DHT22;29963;44.594;11.368;2024-03-02T00:18:33;12.70;99.90
44271;DHT22;29963;44.594;11.368;2024-03-02T00:21:00;12.70;99.90
44271;DHT22;29963;44.594;11.368;2024-03-02T00:23:32;12.70;99.90
44271;DHT22;29963;44.594;11.368;2024-03-02T00:25:59;12.70;99.90
44271;DHT22;29963;44.594;11.368;2024-03-02T00:28:35;12.70;99.90
44271;DHT22;29963;44.594;11.368;2024-03-02T00:33:44;12.70;99.90
44271;DHT22;29963;44.594;11.368;2024-03-02T00:36:12;12.70;99.90
44271;DHT22;29963;44.594;11.368;2024-03-02T00:38:49;12.70;99.90
44271;DHT22;29963;44.594;11.368;2024-03-02T00:41:29;12.70;99.90
44271;DHT22;29963;44.594;11.368;2024-03-02T00:43:58;12.70;99.90
44271;DHT22;29963;44.594;11.368;2024-03-02T00:46:25;12.70;99.90
44271;DHT22;29963;44.594;11.368;2024-03-02T00:51:23;12.70;99.90
44271;DHT22;29963;44.594;11.368;2024-03-02T00:53:49;12.70;99.90
44271;DHT22;29963;44.594;11.368;2024-03-02T00:56:16;12.70;99.90
44271;DHT22;29963;44.594;11.368;2024-03-02T00:58:42;12.60;99.90
44271;DHT22;29963;44.594;11.368;2024-03-02T01:01:08;12.70;99.90
44271;DHT22;29963;44.594;11.368;2024-03-02T01:03:35;12.60;99.90
44271;DHT22;29963;44.594;11.368;2024-03-02T01:06:00;12.70;99.90
44271;DHT22;29963;44.594;11.368;2024-03-02T01:08:26;12.60;99.90
44271;DHT22;29963;44.594;11.368;2024-03-02T01:10:52;12.70;99.90
44271;DHT22;29963;44.594;11.368;2024-03-02T01:13:17;12.60;99.90
44271;DHT22;29963;44.594;11.368;2024-03-02T01:15:43;12.60;99.90
44271;DHT22;29963;44.594;11.368;2024-03-02T01:18:09;12.60;99.90
44271;DHT22;29963;44.594;11.368;2024-03-02T01:20:35;12.60;99.90
44271;DHT22;29963;44.594;11.368;2024-03-02T01:23:00;12.60;99.90
44271;DHT22;29963;44.594;11.368;2024-03-02T01:25:26;12.60;99.90
44271;DHT22;29963;44.594;11.368;2024-03-02T01:30:18;12.60;99.90
44271;DHT22;29963;44.594;11.368;2024-03-02T01:32:43;12.50;99.90
44271;DHT22;29963;44.594;11.368;2024-03-02T01:35:09;12.50;99.90
44271;DHT22;29963;44.594;11.368;2024-03-02T01:37:35;12.50;99.90
44271;DHT22;29963;44.594;11.368;2024-03-02T01:40:00;12.50;99.90
44271;DHT22;29963;44.594;11.368;2024-03-02T01:42:26;12.50;99.90
44271;DHT22;29963;44.594;11.368;2024-03-02T01:44:52;12.50;99.90
44271;DHT22;29963;44.594;11.368;2024-03-02T01:47:18;12.40;99.90
44271;DHT22;29963;44.594;11.368;2024-03-02T01:49:43;12.40;99.90
44271;DHT22;29963;44.594;11.368;2024-03-02T01:52:09;12.40;99.90
44271;DHT22;29963;44.594;11.368;2024-03-02T01:54:34;12.40;99.90
44271;DHT22;29963;44.594;11.368;2024-03-02T01:57:00;12.40;99.90
44271;DHT22;29963;44.594;11.368;2024-03-02T01:59:26;12.40;99.90
44271;DHT22;29963;44.594;11.368;2024-03-02T02:01:52;12.40;99.90
44271;DHT22;29963;44.594;11.368;2024-03-02T02:04:18;12.30;99.90
44271;DHT22;29963;44.594;11.368;2024-03-02T02:06:46;12.30;99.90
44271;DHT22;29963;44.594;11.368;2024-03-02T02:11:38;12.30;99.90
44271;DHT22;29963;44.594;11.368;2024-03-02T02:14:04;12.30;99.90
44271;DHT22;29963;44.594;11.368;2024-03-02T02:16:32;12.40;99.90
44271;DHT22;29963;44.594;11.368;2024-03-02T02:18:58;12.40;99.90
44271;DHT22;29963;44.594;11.368;2024-03-02T02:21:23;12.40;99.90
44271;DHT22;29963;44.594;11.368;2024-03-02T02:23:49;12.40;99.90
44271;DHT22;29963;44.594;11.368;2024-03-02T02:26:15;12.40;99.90
44271;DHT22;29963;44.594;11.368;2024-03-02T02:28:41;12.40;99.90
44271;DHT22;29963;44.594;11.368;2024-03-02T02:31:15;12.40;99.90
44271;DHT22;29963;44.594;11.368;2024-03-02T02:33:41;12.40;99.90
44271;DHT22;29963;44.594;11.368;2024-03-02T02:36:08;12.40;99.90
44271;DHT22;29963;44.594;11.368;2024-03-02T02:38:38;12.40;99.90
44271;DHT22;29963;44.594;11.368;2024-03-02T02:41:06;12.40;99.90
44271;DHT22;29963;44.594;11.368;2024-03-02T02:43:31;12.40;99.90
44271;DHT22;29963;44.594;11.368;2024-03-02T02:45:57;12.40;99.90
44271;DHT22;29963;44.594;11.368;2024-03-02T02:48:22;12.40;99.90
44271;DHT22;29963;44.594;11.368;2024-03-02T02:50:48;12.40;99.90
44271;DHT22;29963;44.594;11.368;2024-03-02T02:53:14;12.40;99.90
44271;DHT22;29963;44.594;11.368;2024-03-02T02:55:39;12.40;99.90
44271;DHT22;29963;44.594;11.368;2024-03-02T02:58:06;12.40;99.90
44271;DHT22;29963;44.594;11.368;2024-03-02T03:00:35;12.40;99.90
44271;DHT22;29963;44.594;11.368;2024-03-02T03:03:02;12.70;99.90
44271;DHT22;29963;44.594;11.368;2024-03-02T03:05:27;12.40;99.90
44271;DHT22;29963;44.594;11.368;2024-03-02T03:07:53;12.40;99.90
44271;DHT22;29963;44.594;11.368;2024-03-02T03:10:19;12.40;99.90
44271;DHT22;29963;44.594;11.368;2024-03-02T03:12:47;12.40;99.90
44271;DHT22;29963;44.594;11.368;2024-03-02T03:15:13;12.40;99.90
44271;DHT22;29963;44.594;11.368;2024-03-02T03:17:39;12.20;99.90
44271;DHT22;29963;44.594;11.368;2024-03-02T03:20:06;12.40;99.90
44271;DHT22;29963;44.594;11.368;2024-03-02T03:22:35;12.40;99.90
44271;DHT22;29963;44.594;11.368;2024-03-02T03:25:01;12.30;99.90
44271;DHT22;29963;44.594;11.368;2024-03-02T03:27:27;12.40;99.90
44271;DHT22;29963;44.594;11.368;2024-03-02T03:29:53;12.40;99.90
44271;DHT22;29963;44.594;11.368;2024-03-02T03:32:22;12.30;99.90
44271;DHT22;29963;44.594;11.368;2024-03-02T03:34:48;12.40;99.90
44271;DHT22;29963;44.594;11.368;2024-03-02T03:37:14;12.40;99.90
44271;DHT22;29963;44.594;11.368;2024-03-02T03:39:40;12.40;99.90
44271;DHT22;29963;44.594;11.368;2024-03-02T03:42:06;12.40;99.90
44271;DHT22;29963;44.594;11.368;2024-03-02T03:44:32;12.30;99.90
44271;DHT22;29963;44.594;11.368;2024-03-02T03:46:58;12.40;99.90
44271;DHT22;29963;44.594;11.368;2024-03-02T03:49:24;12.40;99.90
44271;DHT22;29963;44.594;11.368;2024-03-02T03:51:49;12.30;99.90
44271;DHT22;29963;44.594;11.368;2024-03-02T03:54:15;12.30;99.90
44271;DHT22;29963;44.594;11.368;2024-03-02T03:56:40;12.20;99.90
44271;DHT22;29963;44.594;11.368;2024-03-02T03:59:09;12.30;99.90
44271;DHT22;29963;44.594;11.368;2024-03-02T04:01:35;12.30;99.90
44271;DHT22;29963;44.594;11.368;2024-03-02T04:04:00;12.30;99.90
44271;DHT22;29963;44.594;11.368;2024-03-02T04:06:31;12.30;99.90
44271;DHT22;29963;44.594;11.368;2024-03-02T04:08:57;12.40;99.90
44271;DHT22;29963;44.594;11.368;2024-03-02T04:11:23;12.40;99.90
44271;DHT22;29963;44.594;11.368;2024-03-02T04:13:49;12.30;99.90
44271;DHT22;29963;44.594;11.368;2024-03-02T04:16:14;12.30;99.90
44271;DHT22;29963;44.594;11.368;2024-03-02T04:18:40;12.30;99.90
44271;DHT22;29963;44.594;11.368;2024-03-02T04:21:05;12.40;99.90
44271;DHT22;29963;44.594;11.368;2024-03-02T04:23:34;12.30;99.90
44271;DHT22;29963;44.594;11.368;2024-03-02T04:25:59;12.30;99.90
44271;DHT22;29963;44.594;11.368;2024-03-02T04:28:25;12.40;99.90
44271;DHT22;29963;44.594;11.368;2024-03-02T04:30:51;12.30;99.90
44271;DHT22;29963;44.594;11.368;2024-03-02T04:33:16;12.40;99.90
44271;DHT22;29963;44.594;11.368;2024-03-02T04:35:42;12.40;99.90
44271;DHT22;29963;44.594;11.368;2024-03-02T04:38:07;12.40;99.90
44271;DHT22;29963;44.594;11.368;2024-03-02T04:40:33;12.40;99.90
44271;DHT22;29963;44.594;11.368;2024-03-02T04:42:59;12.40;99.90
44271;DHT22;29963;44.594;11.368;2024-03-02T04:45:24;12.40;99.90
44271;DHT22;29963;44.594;11.368;2024-03-02T04:47:50;12.40;99.90
44271;DHT22;29963;44.594;11.368;2024-03-02T04:50:16;12.40;99.90
44271;DHT22;29963;44.594;11.368;2024-03-02T04:52:41;12.40;99.90
44271;DHT22;29963;44.594;11.368;2024-03-02T04:55:07;12.40;99.90
44271;DHT22;29963;44.594;11.368;2024-03-02T04:57:43;12.30;99.90
44271;DHT22;29963;44.594;11.368;2024-03-02T05:00:09;12.40;99.90
44271;DHT22;29963;44.594;11.368;2024-03-02T05:02:35;12.40;99.90
44271;DHT22;29963;44.594;11.368;2024-03-02T05:05:01;12.30;99.90
44271;DHT22;29963;44.594;11.368;2024-03-02T05:07:27;12.30;99.90
44271;DHT22;29963;44.594;11.368;2024-03-02T05:09:53;12.30;99.90
44271;DHT22;29963;44.594;11.368;2024-03-02T05:12:19;12.30;99.90
44271;DHT22;29963;44.594;11.368;2024-03-02T05:15:03;12.30;99.90
44271;DHT22;29963;44.594;11.368;2024-03-02T05:17:29;12.30;99.90
44271;DHT22;29963;44.594;11.368;2024-03-02T05:19:55;12.20;99.90
44271;DHT22;29963;44.594;11.368;2024-03-02T05:22:20;12.30;99.90
44271;DHT22;29963;44.594;11.368;2024-03-02T05:24:46;12.20;99.90
44271;DHT22;29963;44.594;11.368;2024-03-02T05:27:11;12.30;99.90
44271;DHT22;29963;44.594;11.368;2024-03-02T05:29:37;12.30;99.90
44271;DHT22;29963;44.594;11.368;2024-03-02T05:32:02;12.30;99.90
44271;DHT22;29963;44.594;11.368;2024-03-02T05:34:28;12.30;99.90
44271;DHT22;29963;44.594;11.368;2024-03-02T05:36:54;12.20;99.90
44271;DHT22;29963;44.594;11.368;2024-03-02T05:39:20;12.30;99.90
44271;DHT22;29963;44.594;11.368;2024-03-02T05:41:45;12.20;99.90
44271;DHT22;29963;44.594;11.368;2024-03-02T05:44:11;12.20;99.90
44271;DHT22;29963;44.594;11.368;2024-03-02T05:46:37;12.20;99.90
44271;DHT22;29963;44.594;11.368;2024-03-02T05:49:03;12.30;99.90
44271;DHT22;29963;44.594;11.368;2024-03-02T05:51:29;12.20;99.90
44271;DHT22;29963;44.594;11.368;2024-03-02T05:53:57;12.20;99.90
44271;DHT22;29963;44.594;11.368;2024-03-02T05:56:23;12.20;99.90
44271;DHT22;29963;44.594;11.368;2024-03-02T05:58:48;12.20;99.90
44271;DHT22;29963;44.594;11.368;2024-03-02T06:01:34;12.20;99.90
44271;DHT22;29963;44.594;11.368;2024-03-02T06:03:59;12.20;99.90
44271;DHT22;29963;44.594;11.368;2024-03-02T06:06:25;12.20;99.90
44271;DHT22;29963;44.594;11.368;2024-03-02T06:08:54;12.20;99.90
44271;DHT22;29963;44.594;11.368;2024-03-02T06:11:20;12.30;99.90
44271;DHT22;29963;44.594;11.368;2024-03-02T06:13:45;12.30;99.90
44271;DHT22;29963;44.594;11.368;2024-03-02T06:16:11;12.30;99.90
44271;DHT22;29963;44.594;11.368;2024-03-02T06:18:40;12.20;99.90
44271;DHT22;29963;44.594;11.368;2024-03-02T06:21:05;12.30;99.90
44271;DHT22;29963;44.594;11.368;2024-03-02T06:23:31;12.20;99.90
44271;DHT22;29963;44.594;11.368;2024-03-02T06:25:57;12.30;99.90
44271;DHT22;29963;44.594;11.368;2024-03-02T06:28:23;12.30;99.90
44271;DHT22;29963;44.594;11.368;2024-03-02T06:30:48;12.40;99.90
44271;DHT22;29963;44.594;11.368;2024-03-02T06:33:14;12.40;99.90
44271;DHT22;29963;44.594;11.368;2024-03-02T06:35:40;12.40;99.90
44271;DHT22;29963;44.594;11.368;2024-03-02T06:38:06;12.40;99.90
44271;DHT22;29963;44.594;11.368;2024-03-02T06:40:32;12.40;99.90
44271;DHT22;29963;44.594;11.368;2024-03-02T06:42:57;12.40;99.90
44271;DHT22;29963;44.594;11.368;2024-03-02T06:45:23;12.50;99.90
44271;DHT22;29963;44.594;11.368;2024-03-02T06:47:48;12.50;99.90
44271;DHT22;29963;44.594;11.368;2024-03-02T06:50:14;12.50;99.90
44271;DHT22;29963;44.594;11.368;2024-03-02T06:52:39;12.50;99.90
44271;DHT22;29963;44.594;11.368;2024-03-02T06:55:05;12.50;99.90
44271;DHT22;29963;44.594;11.368;2024-03-02T06:57:31;13.00;99.90
44271;DHT22;29963;44.594;11.368;2024-03-02T06:59:57;12.50;99.90
44271;DHT22;29963;44.594;11.368;2024-03-02T07:02:26;12.50;99.90
44271;DHT22;29963;44.594;11.368;2024-03-02T07:04:53;12.40;99.90
44271;DHT22;29963;44.594;11.368;2024-03-02T07:07:19;12.50;99.90
44271;DHT22;29963;44.594;11.368;2024-03-02T07:09:44;12.50;99.90
44271;DHT22;29963;44.594;11.368;2024-03-02T07:12:13;12.50;99.90
44271;DHT22;29963;44.594;11.368;2024-03-02T07:14:39;12.50;99.90
44271;DHT22;29963;44.594;11.368;2024-03-02T07:17:23;12.50;99.90
44271;DHT22;29963;44.594;11.368;2024-03-02T07:19:48;12.50;99.90
44271;DHT22;29963;44.594;11.368;2024-03-02T07:22:14;12.50;99.90
44271;DHT22;29963;44.594;11.368;2024-03-02T07:24:41;12.50;99.90
44271;DHT22;29963;44.594;11.368;2024-03-02T07:27:07;12.50;99.90
44271;DHT22;29963;44.594;11.368;2024-03-02T07:29:34;12.50;99.90
44271;DHT22;29963;44.594;11.368;2024-03-02T07:32:00;12.50;99.90
44271;DHT22;29963;44.594;11.368;2024-03-02T07:34:25;12.60;99.90
44271;DHT22;29963;44.594;11.368;2024-03-02T07:36:51;12.50;99.90
44271;DHT22;29963;44.594;11.368;2024-03-02T07:39:17;12.50;99.90
44271;DHT22;29963;44.594;11.368;2024-03-02T07:41:43;12.60;99.90
44271;DHT22;29963;44.594;11.368;2024-03-02T07:44:09;12.60;99.90
44271;DHT22;29963;44.594;11.368;2024-03-02T07:46:35;12.60;99.90
44271;DHT22;29963;44.594;11.368;2024-03-02T07:49:00;12.60;99.90
44271;DHT22;29963;44.594;11.368;2024-03-02T07:51:26;12.60;99.90
44271;DHT22;29963;44.594;11.368;2024-03-02T07:53:51;12.60;99.90
44271;DHT22;29963;44.594;11.368;2024-03-02T07:56:17;12.70;99.90
44271;DHT22;29963;44.594;11.368;2024-03-02T07:58:50;12.70;99.90
44271;DHT22;29963;44.594;11.368;2024-03-02T08:01:16;12.80;99.90
44271;DHT22;29963;44.594;11.368;2024-03-02T08:03:43;12.80;99.90
44271;DHT22;29963;44.594;11.368;2024-03-02T08:06:13;12.80;99.90
44271;DHT22;29963;44.594;11.368;2024-03-02T08:08:40;12.90;99.90
44271;DHT22;29963;44.594;11.368;2024-03-02T08:11:06;12.90;99.90
44271;DHT22;29963;44.594;11.368;2024-03-02T08:13:31;12.90;99.90
44271;DHT22;29963;44.594;11.368;2024-03-02T08:15:57;12.90;99.90
44271;DHT22;29963;44.594;11.368;2024-03-02T08:18:24;13.50;99.90
44271;DHT22;29963;44.594;11.368;2024-03-02T08:20:49;13.00;99.90
44271;DHT22;29963;44.594;11.368;2024-03-02T08:23:18;13.00;99.90
44271;DHT22;29963;44.594;11.368;2024-03-02T08:25:43;13.00;99.90
44271;DHT22;29963;44.594;11.368;2024-03-02T08:28:10;13.00;99.90
44271;DHT22;29963;44.594;11.368;2024-03-02T08:30:36;13.10;99.90
44271;DHT22;29963;44.594;11.368;2024-03-02T08:33:01;13.10;99.90
44271;DHT22;29963;44.594;11.368;2024-03-02T08:35:27;13.10;99.90
44271;DHT22;29963;44.594;11.368;2024-03-02T08:37:53;13.20;99.90
44271;DHT22;29963;44.594;11.368;2024-03-02T08:40:19;13.10;99.90
44271;DHT22;29963;44.594;11.368;2024-03-02T08:42:44;13.20;99.90
44271;DHT22;29963;44.594;11.368;2024-03-02T08:45:10;13.20;99.90
44271;DHT22;29963;44.594;11.368;2024-03-02T08:47:36;13.20;99.90
44271;DHT22;29963;44.594;11.368;2024-03-02T08:50:02;13.20;99.90
44271;DHT22;29963;44.594;11.368;2024-03-02T08:52:29;13.20;99.90
44271;DHT22;29963;44.594;11.368;2024-03-02T08:54:54;13.20;99.90
44271;DHT22;29963;44.594;11.368;2024-03-02T08:57:20;13.20;99.90
44271;DHT22;29963;44.594;11.368;2024-03-02T08:59:46;13.30;99.90
44271;DHT22;29963;44.594;11.368;2024-03-02T09:02:12;13.30;99.90
44271;DHT22;29963;44.594;11.368;2024-03-02T09:04:37;13.30;99.90
44271;DHT22;29963;44.594;11.368;2024-03-02T09:07:03;13.30;99.90
44271;DHT22;29963;44.594;11.368;2024-03-02T09:09:29;13.40;99.90
44271;DHT22;29963;44.594;11.368;2024-03-02T09:11:57;13.40;99.90
44271;DHT22;29963;44.594;11.368;2024-03-02T09:14:23;13.40;99.90
44271;DHT22;29963;44.594;11.368;2024-03-02T09:16:51;13.40;99.90
44271;DHT22;29963;44.594;11.368;2024-03-02T09:19:17;13.50;99.90
44271;DHT22;29963;44.594;11.368;2024-03-02T09:21:42;13.50;99.90
44271;DHT22;29963;44.594;11.368;2024-03-02T09:24:09;13.50;99.90
44271;DHT22;29963;44.594;11.368;2024-03-02T09:26:35;13.50;99.90
44271;DHT22;29963;44.594;11.368;2024-03-02T09:29:01;13.50;99.90
44271;DHT22;29963;44.594;11.368;2024-03-02T09:31:26;13.60;99.90
44271;DHT22;29963;44.594;11.368;2024-03-02T09:33:52;13.60;99.90
44271;DHT22;29963;44.594;11.368;2024-03-02T09:36:22;13.70;99.90
44271;DHT22;29963;44.594;11.368;2024-03-02T09:38:48;13.70;99.90
44271;DHT22;29963;44.594;11.368;2024-03-02T09:41:16;13.70;99.90
44271;DHT22;29963;44.594;11.368;2024-03-02T09:43:42;13.80;99.90
44271;DHT22;29963;44.594;11.368;2024-03-02T09:46:09;13.90;99.90
44271;DHT22;29963;44.594;11.368;2024-03-02T09:48:35;13.90;99.90
44271;DHT22;29963;44.594;11.368;2024-03-02T09:51:01;14.00;99.90
44271;DHT22;29963;44.594;11.368;2024-03-02T09:53:31;14.00;99.90
44271;DHT22;29963;44.594;11.368;2024-03-02T09:55:57;14.00;99.90
44271;DHT22;29963;44.594;11.368;2024-03-02T09:58:23;14.10;99.90
44271;DHT22;29963;44.594;11.368;2024-03-02T10:00:49;14.00;99.90
44271;DHT22;29963;44.594;11.368;2024-03-02T10:03:15;14.10;99.90
44271;DHT22;29963;44.594;11.368;2024-03-02T10:05:40;14.10;99.90
44271;DHT22;29963;44.594;11.368;2024-03-02T10:08:06;14.10;99.90
44271;DHT22;29963;44.594;11.368;2024-03-02T10:10:39;14.10;99.90
44271;DHT22;29963;44.594;11.368;2024-03-02T10:13:06;14.10;99.90
44271;DHT22;29963;44.594;11.368;2024-03-02T10:15:32;14.20;99.90
44271;DHT22;29963;44.594;11.368;2024-03-02T10:17:58;14.40;99.90
44271;DHT22;29963;44.594;11.368;2024-03-02T10:20:27;14.40;99.90
44271;DHT22;29963;44.594;11.368;2024-03-02T10:22:58;14.50;99.90
44271;DHT22;29963;44.594;11.368;2024-03-02T10:25:35;14.60;99.90
44271;DHT22;29963;44.594;11.368;2024-03-02T10:28:00;14.70;99.90
44271;DHT22;29963;44.594;11.368;2024-03-02T10:30:27;14.80;99.90
44271;DHT22;29963;44.594;11.368;2024-03-02T10:32:54;14.70;99.90
44271;DHT22;29963;44.594;11.368;2024-03-02T10:35:24;14.80;99.90
44271;DHT22;29963;44.594;11.368;2024-03-02T10:37:52;15.30;99.90
44271;DHT22;29963;44.594;11.368;2024-03-02T10:40:21;14.90;99.90
44271;DHT22;29963;44.594;11.368;2024-03-02T10:42:47;15.00;99.90
44271;DHT22;29963;44.594;11.368;2024-03-02T10:45:15;15.00;99.90
44271;DHT22;29963;44.594;11.368;2024-03-02T10:47:43;15.10;99.90
44271;DHT22;29963;44.594;11.368;2024-03-02T10:50:12;15.10;99.90
44271;DHT22;29963;44.594;11.368;2024-03-02T10:52:38;15.20;99.90
44271;DHT22;29963;44.594;11.368;2024-03-02T10:55:05;15.20;99.90
44271;DHT22;29963;44.594;11.368;2024-03-02T11:00:12;15.20;99.90
44271;DHT22;29963;44.594;11.368;2024-03-02T11:02:51;15.10;99.90
44271;DHT22;29963;44.594;11.368;2024-03-02T11:05:31;15.20;99.90
44271;DHT22;29963;44.594;11.368;2024-03-02T11:08:01;15.10;99.90
44271;DHT22;29963;44.594;11.368;2024-03-02T11:10:58;15.10;99.90
44271;DHT22;29963;44.594;11.368;2024-03-02T11:13:33;15.10;99.90
44271;DHT22;29963;44.594;11.368;2024-03-02T11:16:38;15.00;99.90
44271;DHT22;29963;44.594;11.368;2024-03-02T11:19:14;15.00;99.90
44271;DHT22;29963;44.594;11.368;2024-03-02T11:21:40;15.00;99.90
44271;DHT22;29963;44.594;11.368;2024-03-02T11:26:49;15.00;99.90
44271;DHT22;29963;44.594;11.368;2024-03-02T11:32:03;15.00;99.90
44271;DHT22;29963;44.594;11.368;2024-03-02T11:34:33;15.10;99.90
44271;DHT22;29963;44.594;11.368;2024-03-02T11:37:00;15.10;99.90
44271;DHT22;29963;44.594;11.368;2024-03-02T11:39:27;15.10;99.90
44271;DHT22;29963;44.594;11.368;2024-03-02T11:41:54;15.10;99.90
44271;DHT22;29963;44.594;11.368;2024-03-02T11:44:20;15.20;99.90
44271;DHT22;29963;44.594;11.368;2024-03-02T11:47:06;15.20;99.90
44271;DHT22;29963;44.594;11.368;2024-03-02T11:49:40;15.30;99.90
44271;DHT22;29963;44.594;11.368;2024-03-02T11:52:08;15.40;99.90
44271;DHT22;29963;44.594;11.368;2024-03-02T11:54:39;15.50;99.90
44271;DHT22;29963;44.594;11.368;2024-03-02T11:57:08;15.60;99.90
44271;DHT22;29963;44.594;11.368;2024-03-02T11:59:34;15.60;99.90
44271;DHT22;29963;44.594;11.368;2024-03-02T12:02:00;15.70;99.90
44271;DHT22;29963;44.594;11.368;2024-03-02T12:04:26;15.90;99.90
44271;DHT22;29963;44.594;11.368;2024-03-02T12:06:56;15.90;99.90
44271;DHT22;29963;44.594;11.368;2024-03-02T12:09:28;16.00;99.90
44271;DHT22;29963;44.594;11.368;2024-03-02T12:12:08;16.10;99.90
44271;DHT22;29963;44.594;11.368;2024-03-02T12:14:36;16.10;99.90
44271;DHT22;29963;44.594;11.368;2024-03-02T12:17:02;16.00;99.90
44271;DHT22;29963;44.594;11.368;2024-03-02T12:19:32;16.00;99.90
44271;DHT22;29963;44.594;11.368;2024-03-02T12:21:59;16.00;99.90
44271;DHT22;29963;44.594;11.368;2024-03-02T12:24:29;15.90;99.90
44271;DHT22;29963;44.594;11.368;2024-03-02T12:26:55;15.90;99.90
44271;DHT22;29963;44.594;11.368;2024-03-02T12:29:21;15.90;99.90
44271;DHT22;29963;44.594;11.368;2024-03-02T12:31:51;16.00;99.90
44271;DHT22;29963;44.594;11.368;2024-03-02T12:34:21;16.00;99.90
44271;DHT22;29963;44.594;11.368;2024-03-02T12:36:47;16.10;99.90
44271;DHT22;29963;44.594;11.368;2024-03-02T12:39:15;16.10;99.90
44271;DHT22;29963;44.594;11.368;2024-03-02T12:41:41;16.10;99.90
44271;DHT22;29963;44.594;11.368;2024-03-02T12:44:08;16.20;99.90
44271;DHT22;29963;44.594;11.368;2024-03-02T12:46:34;16.20;99.90
44271;DHT22;29963;44.594;11.368;2024-03-02T12:49:11;16.10;99.90
44271;DHT22;29963;44.594;11.368;2024-03-02T12:51:39;16.10;99.90
44271;DHT22;29963;44.594;11.368;2024-03-02T12:54:07;16.00;99.90
44271;DHT22;29963;44.594;11.368;2024-03-02T12:56:33;16.00;99.90
44271;DHT22;29963;44.594;11.368;2024-03-02T12:58:59;16.00;99.90
44271;DHT22;29963;44.594;11.368;2024-03-02T13:01:25;16.10;99.90
44271;DHT22;29963;44.594;11.368;2024-03-02T13:03:52;16.10;99.90
44271;DHT22;29963;44.594;11.368;2024-03-02T13:06:18;16.20;99.90
44271;DHT22;29963;44.594;11.368;2024-03-02T13:08:45;16.20;99.90
44271;DHT22;29963;44.594;11.368;2024-03-02T13:11:12;16.20;99.90
44271;DHT22;29963;44.594;11.368;2024-03-02T13:13:39;16.20;99.90
44271;DHT22;29963;44.594;11.368;2024-03-02T13:16:11;16.30;99.90
44271;DHT22;29963;44.594;11.368;2024-03-02T13:18:40;16.30;99.90
44271;DHT22;29963;44.594;11.368;2024-03-02T13:21:07;16.20;99.90
44271;DHT22;29963;44.594;11.368;2024-03-02T13:23:33;16.20;99.90
44271;DHT22;29963;44.594;11.368;2024-03-02T13:25:58;16.20;99.90
44271;DHT22;29963;44.594;11.368;2024-03-02T13:28:27;16.10;99.90
44271;DHT22;29963;44.594;11.368;2024-03-02T13:30:53;16.10;99.90
44271;DHT22;29963;44.594;11.368;2024-03-02T13:33:19;16.10;99.90
44271;DHT22;29963;44.594;11.368;2024-03-02T13:35:51;16.00;99.90
44271;DHT22;29963;44.594;11.368;2024-03-02T13:38:18;16.10;99.90
44271;DHT22;29963;44.594;11.368;2024-03-02T13:40:44;16.00;99.90
44271;DHT22;29963;44.594;11.368;2024-03-02T13:43:10;16.00;99.90
44271;DHT22;29963;44.594;11.368;2024-03-02T13:45:37;16.00;99.90
44271;DHT22;29963;44.594;11.368;2024-03-02T13:48:03;16.00;99.90
44271;DHT22;29963;44.594;11.368;2024-03-02T13:50:28;16.00;99.90
44271;DHT22;29963;44.594;11.368;2024-03-02T13:52:55;16.10;99.90
44271;DHT22;29963;44.594;11.368;2024-03-02T13:55:22;16.10;99.90
44271;DHT22;29963;44.594;11.368;2024-03-02T13:57:48;16.20;99.90
44271;DHT22;29963;44.594;11.368;2024-03-02T14:00:16;16.40;99.90
44271;DHT22;29963;44.594;11.368;2024-03-02T14:02:43;16.80;99.90
44271;DHT22;29963;44.594;11.368;2024-03-02T14:05:08;17.10;99.90
44271;DHT22;29963;44.594;11.368;2024-03-02T14:07:38;17.50;99.90
44271;DHT22;29963;44.594;11.368;2024-03-02T14:10:04;17.90;99.90
44271;DHT22;29963;44.594;11.368;2024-03-02T14:12:29;18.00;99.90
44271;DHT22;29963;44.594;11.368;2024-03-02T14:14:56;18.10;99.90
44271;DHT22;29963;44.594;11.368;2024-03-02T14:17:24;18.20;99.90
44271;DHT22;29963;44.594;11.368;2024-03-02T14:19:50;18.20;99.90
44271;DHT22;29963;44.594;11.368;2024-03-02T14:22:16;18.20;99.90
44271;DHT22;29963;44.594;11.368;2024-03-02T14:24:43;18.20;99.90
44271;DHT22;29963;44.594;11.368;2024-03-02T14:27:09;18.30;99.90
44271;DHT22;29963;44.594;11.368;2024-03-02T14:29:34;18.70;99.90
44271;DHT22;29963;44.594;11.368;2024-03-02T14:32:03;19.10;99.90
44271;DHT22;29963;44.594;11.368;2024-03-02T14:34:29;19.50;99.90
44271;DHT22;29963;44.594;11.368;2024-03-02T14:36:55;20.00;99.90
44271;DHT22;29963;44.594;11.368;2024-03-02T14:39:23;20.40;99.90
44271;DHT22;29963;44.594;11.368;2024-03-02T14:41:49;20.40;99.90
44271;DHT22;29963;44.594;11.368;2024-03-02T14:44:14;20.40;99.90
44271;DHT22;29963;44.594;11.368;2024-03-02T14:46:41;20.20;99.90
44271;DHT22;29963;44.594;11.368;2024-03-02T14:49:07;19.90;99.90
44271;DHT22;29963;44.594;11.368;2024-03-02T14:51:33;19.50;99.90
44271;DHT22;29963;44.594;11.368;2024-03-02T14:53:58;19.20;99.90
44271;DHT22;29963;44.594;11.368;2024-03-02T14:56:24;18.90;99.90
44271;DHT22;29963;44.594;11.368;2024-03-02T14:58:50;18.60;99.90
44271;DHT22;29963;44.594;11.368;2024-03-02T15:01:16;18.40;99.90
44271;DHT22;29963;44.594;11.368;2024-03-02T15:03:43;18.20;99.90
44271;DHT22;29963;44.594;11.368;2024-03-02T15:06:09;18.00;99.90
44271;DHT22;29963;44.594;11.368;2024-03-02T15:08:35;17.80;99.90
44271;DHT22;29963;44.594;11.368;2024-03-02T15:11:01;17.60;99.90
44271;DHT22;29963;44.594;11.368;2024-03-02T15:13:29;17.60;99.90
44271;DHT22;29963;44.594;11.368;2024-03-02T15:15:57;18.00;99.90
44271;DHT22;29963;44.594;11.368;2024-03-02T15:18:24;18.60;99.90
44271;DHT22;29963;44.594;11.368;2024-03-02T15:20:49;18.90;99.90
44271;DHT22;29963;44.594;11.368;2024-03-02T15:23:15;19.00;99.90
44271;DHT22;29963;44.594;11.368;2024-03-02T15:25:41;19.90;99.90
44271;DHT22;29963;44.594;11.368;2024-03-02T15:28:06;21.50;99.90
44271;DHT22;29963;44.594;11.368;2024-03-02T15:30:32;22.50;99.90
44271;DHT22;29963;44.594;11.368;2024-03-02T15:32:58;22.30;99.90